Time;durP1;ratioP1;P1;durP2;ratioP2;P2;SDS_P1;SDS_P2;PMS_P1;PMS_P2;Temp;Humidity;BMP_temperature;BMP_pressure;BME280_temperature;BME280_humidity;BME280_pressure;Samples;Min_cycle;Max_cycle;Signal;HPM_P1;HPM_P2
2022/08/02 00:01:38;;;;;;;6.45;6.25;;;;;;;21.55;100.00;33491.22;5091850;28;20267;-64
2022/08/02 00:04:05;;;;;;;6.82;6.43;;;;;;;21.59;100.00;32836.66;5092118;28;20204;-64
2022/08/02 00:06:34;;;;;;;6.20;6.00;;;;;;;21.58;100.00;27585.13;5091626;28;20195;-63
2022/08/02 00:09:01;;;;;;;6.28;6.03;;;;;;;21.67;100.00;29558.34;5091673;28;20631;-62
2022/08/02 00:11:28;;;;;;;6.00;5.70;;;;;;;21.65;100.00;26933.03;5091879;28;20188;-63
2022/08/02 00:13:55;;;;;;;5.88;5.40;;;;;;;21.66;100.00;26605.63;5091707;28;20610;-63
2022/08/02 00:16:21;;;;;;;6.00;5.70;;;;;;;21.55;100.00;24306.38;5091583;28;20194;-63
2022/08/02 00:18:49;;;;;;;5.93;5.43;;;;;;;21.58;100.00;24962.75;5091763;28;20496;-63
2022/08/02 00:21:16;;;;;;;6.15;5.88;;;;;;;21.40;100.00;18082.94;5092726;28;20188;-63
2022/08/02 00:23:44;;;;;;;6.05;5.55;;;;;;;21.37;100.00;16774.63;5095523;28;20200;-63
2022/08/02 00:26:11;;;;;;;5.63;5.43;;;;;;;21.32;100.00;12854.56;5095553;28;20188;-63
2022/08/02 00:28:38;;;;;;;5.30;5.10;;;;;;;21.29;100.00;12527.47;5095562;28;20195;-62
2022/08/02 00:31:05;;;;;;;5.78;5.57;;;;;;;21.28;100.00;9917.94;5095578;28;20184;-63
2022/08/02 00:33:32;;;;;;;5.88;5.38;;;;;;;21.35;100.00;12855.22;5095325;28;20188;-64
2022/08/02 00:35:59;;;;;;;5.50;5.10;;;;;;;21.41;100.00;14489.28;5095655;28;20594;-66
2022/08/02 00:38:26;;;;;;;5.13;4.70;;;;;;;21.46;100.00;23319.63;5095677;28;20191;-64
2022/08/02 00:40:54;;;;;;;4.40;4.25;;;;;;;21.48;100.00;33158.88;5095556;28;20643;-62
2022/08/02 00:43:21;;;;;;;4.38;4.28;;;;;;;21.38;100.00;35452.31;5095449;28;20314;-64
2022/08/02 00:45:48;;;;;;;4.63;4.32;;;;;;;21.56;100.00;34806.03;5095593;28;20704;-64
2022/08/02 00:48:15;;;;;;;4.65;4.50;;;;;;;21.57;100.00;38752.53;5095345;28;20187;-62
2022/08/02 00:50:42;;;;;;;4.00;3.72;;;;;;;21.50;100.00;34802.31;5095535;28;20194;-64
2022/08/02 00:53:09;;;;;;;3.72;3.45;;;;;;;21.70;100.00;51620.31;5095056;28;20188;-63
2022/08/02 00:55:36;;;;;;;4.00;3.90;;;;;;;21.81;100.00;58245.16;5095286;28;20188;-63
2022/08/02 00:58:05;;;;;;;3.78;3.28;;;;;;;21.90;100.00;67868.53;5095065;28;20188;-63
2022/08/02 01:00:32;;;;;;;3.17;3.08;;;;;;;22.01;100.00;75528.59;5095293;28;20199;-63
2022/08/02 01:02:59;;;;;;;3.75;3.20;;;;;;;22.17;100.00;93573.44;5095045;28;20234;-62
2022/08/02 01:05:26;;;;;;;3.20;3.08;;;;;;;22.28;100.00;107006.69;5094789;28;20254;-62
2022/08/02 01:07:53;;;;;;;3.42;3.33;;;;;;;22.41;100.00;119823.16;5094619;28;20188;-63
2022/08/02 01:10:20;;;;;;;2.90;2.80;;;;;;;22.43;100.00;124215.22;5095006;28;20188;-63
2022/08/02 01:12:47;;;;;;;3.10;3.00;;;;;;;22.60;100.00;138468.88;5094931;28;20690;-63
2022/08/02 01:15:17;;;;;;;2.97;2.88;;;;;;;22.61;100.00;148037.63;5094731;28;20245;-63
2022/08/02 01:17:49;;;;;;;2.85;2.75;;;;;;;22.68;100.00;145446.31;5095035;28;20231;-63
2022/08/02 01:20:38;;;;;;;4.32;3.50;;;;;;;22.70;100.00;148998.34;5094954;28;20188;-63
2022/08/02 01:23:25;;;;;;;3.38;3.28;;;;;;;22.72;100.00;148337.38;5091136;28;20241;-63
2022/08/02 01:26:13;;;;;;;3.20;3.05;;;;;;;22.74;100.00;146563.38;5094465;28;20194;-64
2022/08/02 01:28:49;;;;;;;3.05;2.75;;;;;;;22.65;100.00;145170.78;5094296;28;20188;-64
2022/08/02 01:31:21;;;;;;;3.35;3.25;;;;;;;22.72;100.00;146790.81;5094635;28;20191;-63
2022/08/02 01:33:54;;;;;;;3.55;3.45;;;;;;;22.59;100.00;151717.28;5094171;28;20180;-63
2022/08/02 01:36:23;;;;;;;3.03;2.92;;;;;;;22.74;100.00;151755.63;5094394;28;20248;-63
2022/08/02 01:38:53;;;;;;;3.38;3.28;;;;;;;22.66;100.00;151735.16;5094489;28;20643;-63
2022/08/02 01:41:24;;;;;;;3.58;3.30;;;;;;;22.77;100.00;151763.25;5094177;28;20200;-64
2022/08/02 01:43:57;;;;;;;3.20;3.10;;;;;;;22.68;100.00;151741.53;5094290;28;20220;-63
2022/08/02 01:46:26;;;;;;;3.47;3.38;;;;;;;22.75;100.00;151759.41;5093955;28;20195;-64
2022/08/02 01:48:56;;;;;;;3.22;3.13;;;;;;;22.76;100.00;151760.69;5093981;28;20199;-63
2022/08/02 01:54:07;;;;;;;3.78;3.55;;;;;;;22.66;100.00;151736.41;5093742;28;20227;-63
2022/08/02 01:56:36;;;;;;;5.13;3.30;;;;;;;22.70;100.00;151745.41;5093890;28;20188;-62
2022/08/02 01:59:08;;;;;;;3.65;3.55;;;;;;;22.69;100.00;151742.84;5093785;28;20656;-63
2022/08/02 02:01:38;;;;;;;3.83;3.72;;;;;;;22.54;100.00;151705.81;5094025;28;20638;-62
2022/08/02 02:04:08;;;;;;;3.70;3.60;;;;;;;22.71;100.00;151747.94;5093992;28;20669;-64
2022/08/02 02:06:36;;;;;;;3.80;3.70;;;;;;;22.73;100.00;151753.06;5093879;28;20649;-63
2022/08/02 02:09:05;;;;;;;3.45;3.35;;;;;;;22.73;100.00;151753.06;5093803;28;20187;-63
2022/08/02 02:11:33;;;;;;;3.72;3.63;;;;;;;22.67;100.00;151737.69;5093661;28;20184;-63
2022/08/02 02:14:01;;;;;;;3.80;3.70;;;;;;;22.73;100.00;151753.06;5093547;28;20265;-63
2022/08/02 02:16:30;;;;;;;3.63;3.53;;;;;;;22.69;100.00;151744.13;5093460;28;20190;-63
2022/08/02 02:18:59;;;;;;;4.00;3.90;;;;;;;22.67;100.00;151738.97;5093273;28;20184;-63
2022/08/02 02:21:26;;;;;;;3.58;3.47;;;;;;;22.65;100.00;151732.59;5093754;28;20195;-63
2022/08/02 02:23:55;;;;;;;3.95;3.65;;;;;;;22.68;100.00;151740.25;5093309;28;20208;-62
2022/08/02 02:26:23;;;;;;;3.58;3.47;;;;;;;22.54;100.00;151704.53;5093304;28;20192;-62
2022/08/02 02:28:52;;;;;;;3.72;3.63;;;;;;;22.37;100.00;151661.16;5093106;28;20274;-64
2022/08/02 02:31:20;;;;;;;3.90;3.80;;;;;;;22.43;100.00;151676.47;5093144;28;20180;-63
2022/08/02 02:33:56;;;;;;;3.90;3.67;;;;;;;22.35;100.00;151656.09;5092951;28;20187;-63
2022/08/02 02:36:24;;;;;;;4.75;4.45;;;;;;;22.37;100.00;151661.16;5093285;28;20630;-63
2022/08/02 02:38:52;;;;;;;4.28;4.18;;;;;;;22.36;100.00;151658.66;5093344;28;20211;-63
2022/08/02 02:41:23;;;;;;;4.50;4.40;;;;;;;22.36;100.00;151658.66;5093337;28;20528;-63
2022/08/02 02:43:53;;;;;;;4.22;3.92;;;;;;;22.16;100.00;151608.88;5092332;28;20220;-63
2022/08/02 02:46:20;;;;;;;4.43;4.22;;;;;;;22.17;100.00;151612.72;5093290;28;20184;-62
2022/08/02 02:48:49;;;;;;;4.20;4.00;;;;;;;22.20;100.00;151619.09;5092729;28;20271;-63
2022/08/02 02:51:16;;;;;;;4.22;4.13;;;;;;;22.25;100.00;151631.84;5093074;28;20226;-63
2022/08/02 02:53:45;;;;;;;4.10;4.00;;;;;;;22.10;100.00;151594.91;5092695;28;20280;-63
2022/08/02 02:56:13;;;;;;;4.38;4.28;;;;;;;22.13;100.00;151602.53;5092812;28;20183;-63
2022/08/02 02:58:40;;;;;;;4.18;3.92;;;;;;;21.93;100.00;151551.53;5092926;28;20218;-63
2022/08/02 03:03:54;;;;;;;4.22;4.03;;;;;;;21.95;100.00;151555.34;5092536;28;20203;-63
2022/08/02 03:06:21;;;;;;;4.63;3.75;;;;;;;22.03;100.00;151577.00;5092458;28;20184;-63
2022/08/02 03:08:48;;;;;;;4.13;3.90;;;;;;;22.06;100.00;151584.69;5092431;28;20198;-62
2022/08/02 03:11:15;;;;;;;4.70;4.50;;;;;;;22.07;100.00;151587.22;5092757;28;20191;-62
2022/08/02 03:13:43;;;;;;;5.13;4.72;;;;;;;21.87;100.00;151536.19;5092288;28;20242;-63
2022/08/02 03:16:11;;;;;;;4.30;4.10;;;;;;;21.93;100.00;151550.28;5092390;28;20186;-63
2022/08/02 03:18:39;;;;;;;4.43;4.22;;;;;;;21.97;100.00;151561.75;5092698;28;20188;-63
2022/08/02 03:21:10;;;;;;;4.25;4.15;;;;;;;22.06;100.00;151584.69;5092223;28;20278;-63
2022/08/02 03:23:37;;;;;;;4.10;4.00;;;;;;;21.93;100.00;151550.28;5092534;28;20668;-63
2022/08/02 03:26:04;;;;;;;5.80;3.92;;;;;;;22.07;100.00;151585.94;5092358;28;20579;-63
2022/08/02 03:28:32;;;;;;;3.97;3.80;;;;;;;22.13;100.00;151601.25;5092466;28;20187;-63
2022/08/02 03:30:59;;;;;;;4.50;4.20;;;;;;;22.29;100.00;151643.31;5092339;28;20211;-64
2022/08/02 03:33:26;;;;;;;4.20;4.10;;;;;;;22.87;100.00;151787.50;5091192;28;20287;-63
2022/08/02 03:36:00;;;;;;;4.70;4.50;;;;;;;23.37;100.00;151913.81;5090769;28;20647;-63
2022/08/02 03:38:32;;;;;;;4.13;4.03;;;;;;;23.46;100.00;151938.13;5089686;28;20187;-63
2022/08/02 03:41:00;;;;;;;4.82;4.03;;;;;;;23.48;100.00;151943.19;5092183;28;20661;-63
2022/08/02 03:43:28;;;;;;;3.90;3.80;;;;;;;23.51;100.00;151950.84;5092075;28;20223;-63
2022/08/02 03:45:56;;;;;;;3.97;3.88;;;;;;;23.79;100.00;152021.06;5092201;28;20210;-62
2022/08/02 03:48:25;;;;;;;4.63;4.35;;;;;;;23.89;100.00;152046.56;5091814;28;20180;-62
2022/08/02 03:50:52;;;;;;;4.50;4.30;;;;;;;24.01;100.00;152077.25;5091827;28;20180;-63
2022/08/02 03:53:20;;;;;;;4.40;4.20;;;;;;;24.07;100.00;152092.53;5092368;28;20211;-62
2022/08/02 03:55:49;;;;;;;4.25;4.05;;;;;;;24.22;100.00;152128.34;5091881;28;20188;-63
2022/08/02 03:58:20;;;;;;;4.13;3.92;;;;;;;24.46;100.00;152189.63;5091872;28;20305;-63
2022/08/02 04:00:47;;;;;;;3.80;3.60;;;;;;;24.57;100.00;152218.97;5091565;28;20188;-63
2022/08/02 04:03:14;;;;;;;3.90;3.75;;;;;;;24.54;100.00;152210.03;5091545;28;20196;-63
2022/08/02 04:05:42;;;;;;;7.13;4.00;;;;;;;24.71;100.00;152252.19;5091637;28;20191;-63
2022/08/02 04:08:10;;;;;;;3.70;3.60;;;;;;;24.46;100.00;152190.91;5091744;28;20526;-62
2022/08/02 04:13:20;;;;;;;3.65;3.53;;;;;;;24.68;100.00;152244.53;5091469;28;20239;-62
2022/08/02 04:15:52;;;;;;;3.97;3.88;;;;;;;24.76;100.00;152264.97;5091804;28;20627;-62
2022/08/02 04:18:22;;;;;;;3.92;3.83;;;;;;;24.72;100.00;152254.75;5091970;28;20198;-63
2022/08/02 04:20:51;;;;;;;4.22;3.92;;;;;;;24.69;100.00;152247.09;5091484;28;20198;-62
2022/08/02 04:23:18;;;;;;;4.03;3.72;;;;;;;24.81;100.00;152277.75;5091576;28;20203;-63
2022/08/02 04:25:45;;;;;;;4.20;4.00;;;;;;;25.06;100.00;152340.38;5091393;28;20191;-63
2022/08/02 04:28:15;;;;;;;4.40;4.00;;;;;;;25.05;100.00;152339.09;5091715;28;20188;-63
2022/08/02 04:30:44;;;;;;;4.60;4.30;;;;;;;24.85;100.00;152287.97;5091375;28;20198;-62
2022/08/02 04:33:12;;;;;;;3.83;3.63;;;;;;;24.98;100.00;152322.50;5091444;28;20191;-63
2022/08/02 04:35:39;;;;;;;4.03;3.72;;;;;;;24.96;100.00;152316.09;5091725;28;20636;-62
2022/08/02 04:38:06;;;;;;;3.92;3.72;;;;;;;25.14;100.00;152360.81;5091635;28;20524;-63
2022/08/02 04:40:33;;;;;;;6.68;4.18;;;;;;;25.43;100.00;152436.19;5091569;28;20185;-62
2022/08/02 04:43:00;;;;;;;4.38;4.20;;;;;;;25.59;100.00;152475.84;5091623;28;20659;-63
2022/08/02 04:45:27;;;;;;;4.60;4.20;;;;;;;25.79;100.00;152527.00;5091189;28;20211;-61
2022/08/02 04:47:55;;;;;;;4.47;4.05;;;;;;;25.87;100.00;152546.16;5091562;28;20204;-64
2022/08/02 04:50:22;;;;;;;5.05;4.50;;;;;;;25.79;100.00;152527.00;5091377;28;20184;-62
2022/08/02 04:52:49;;;;;;;5.05;4.70;;;;;;;25.80;100.00;152528.28;5091566;28;20190;-62
2022/08/02 04:55:16;;;;;;;4.78;4.47;;;;;;;25.72;100.00;152509.09;5089950;28;20191;-62
2022/08/02 04:57:56;;;;;;;6.65;5.13;;;;;;;25.78;100.00;152523.16;5091382;28;20212;-62
2022/08/02 05:00:24;;;;;;;5.47;4.95;;;;;;;26.28;100.00;152649.75;5091271;28;20188;-63
2022/08/02 05:02:51;;;;;;;4.57;4.45;;;;;;;26.44;100.00;152689.41;5091230;28;20184;-63
2022/08/02 05:05:20;;;;;;;4.80;4.70;;;;;;;26.63;100.00;152739.25;5091481;28;20204;-63
2022/08/02 05:07:46;;;;;;;5.45;5.07;;;;;;;26.84;100.00;152791.69;5092900;28;20184;-63
2022/08/02 05:10:13;;;;;;;5.88;4.65;;;;;;;26.89;100.00;152804.53;5095306;28;20623;-62
2022/08/02 05:12:41;;;;;;;4.82;4.50;;;;;;;27.02;100.00;152837.78;5094701;28;20236;-63
2022/08/02 05:15:09;;;;;;;6.18;5.68;;;;;;;27.20;100.00;152882.56;5095114;28;20184;-63
2022/08/02 05:17:36;;;;;;;5.97;4.65;;;;;;;27.25;100.00;152895.34;5094931;28;20194;-63
2022/08/02 05:20:06;;;;;;;5.43;4.93;;;;;;;27.04;100.00;152842.88;5095042;28;20523;-63
2022/08/02 05:22:34;;;;;;;5.22;5.03;;;;;;;27.05;100.00;152844.19;5095107;28;20301;-63
2022/08/02 05:25:01;;;;;;;4.88;4.68;;;;;;;27.23;100.00;152890.25;5094720;28;20578;-64
2022/08/02 05:27:28;;;;;;;5.22;5.03;;;;;;;27.45;100.00;152946.53;5094632;28;20180;-63
2022/08/02 05:29:57;;;;;;;6.15;5.50;;;;;;;27.59;100.00;152981.09;5094522;28;20305;-62
2022/08/02 05:32:23;;;;;;;5.03;4.82;;;;;;;27.87;100.00;153051.50;5094309;28;20707;-63
2022/08/02 05:34:50;;;;;;;5.78;5.57;;;;;;;27.86;100.00;153050.22;5092514;28;20548;-62
2022/08/02 05:37:17;;;;;;;5.72;5.53;;;;;;;27.73;100.00;153015.66;5093533;28;20196;-63
2022/08/02 05:39:45;;;;;;;6.10;5.60;;;;;;;27.99;100.00;153082.22;5094228;28;20188;-63
2022/08/02 05:42:15;;;;;;;5.90;5.50;;;;;;;28.27;100.00;153153.94;5094670;28;20184;-62
2022/08/02 05:44:42;;;;;;;6.85;5.95;;;;;;;28.36;100.00;153176.97;5093124;28;20226;-63
2022/08/02 05:47:09;;;;;;;5.88;5.60;;;;;;;28.36;100.00;153175.69;5094606;28;20180;-62
2022/08/02 05:49:36;;;;;;;6.00;5.60;;;;;;;28.27;100.00;153152.63;5094479;28;20188;-63
2022/08/02 05:52:09;;;;;;;5.68;5.40;;;;;;;28.37;100.00;153179.56;5093555;28;20207;-63
2022/08/02 05:54:44;;;;;;;6.38;6.03;;;;;;;28.52;100.00;153216.66;5094621;28;20203;-62
2022/08/02 05:57:26;;;;;;;5.53;5.32;;;;;;;28.54;100.00;153221.78;5093771;28;20187;-62
2022/08/02 06:00:04;;;;;;;6.28;4.90;;;;;;;28.32;100.00;153166.75;5094089;28;20278;-62
2022/08/02 06:02:44;;;;;;;5.68;4.97;;;;;;;28.07;100.00;153103.97;5093653;28;20215;-62
2022/08/02 06:05:13;;;;;;;6.75;6.13;;;;;;;27.97;100.00;153078.34;5093592;28;20210;-62
2022/08/02 06:07:42;;;;;;;6.05;5.63;;;;;;;27.15;100.00;152869.78;5093818;28;20606;-63
2022/08/02 06:10:12;;;;;;;7.28;6.60;;;;;;;26.83;100.00;152789.13;5093729;28;20176;-63
2022/08/02 06:12:45;;;;;;;15.85;7.57;;;;;;;26.77;100.00;152773.81;5093671;28;20242;-63
2022/08/02 06:15:16;;;;;;;7.93;7.15;;;;;;;26.99;100.00;152830.09;5093490;28;20266;-63
2022/08/02 06:17:44;;;;;;;6.15;5.55;;;;;;;27.04;100.00;152841.59;5093469;28;20653;-62
2022/08/02 06:20:12;;;;;;;6.43;6.03;;;;;;;27.29;100.00;152905.56;5091135;28;20188;-62
2022/08/02 06:22:42;;;;;;;6.18;5.65;;;;;;;27.67;100.00;153002.84;5093497;28;20279;-63
2022/08/02 06:25:09;;;;;;;5.82;5.43;;;;;;;27.70;100.00;153010.56;5093606;28;20284;-62
2022/08/02 06:27:38;;;;;;;6.13;5.75;;;;;;;27.96;100.00;153074.56;5093536;28;20199;-62
2022/08/02 06:30:08;;;;;;;6.97;5.32;;;;;;;28.86;100.00;153303.78;5093622;28;20216;-63
2022/08/02 06:32:35;;;;;;;6.43;6.03;;;;;;;29.17;100.00;153381.91;5093023;28;20643;-62
2022/08/02 06:35:03;;;;;;;5.70;5.22;;;;;;;29.02;100.00;153344.78;5093046;28;20180;-62
2022/08/02 06:37:37;;;;;;;5.57;5.22;;;;;;;29.47;100.00;153458.81;5093410;28;20188;-63
2022/08/02 06:40:12;;;;;;;10.57;6.40;;;;;;;29.80;100.00;153542.09;5092978;28;20192;-63
2022/08/02 06:42:48;;;;;;;6.10;5.65;;;;;;;30.10;100.00;153617.72;5092778;28;20199;-63
2022/08/02 06:45:18;;;;;;;5.75;5.40;;;;;;;30.49;100.00;153715.19;5092969;28;20203;-63
2022/08/02 06:47:45;;;;;;;5.57;5.28;;;;;;;30.28;100.00;153662.59;5092584;28;20184;-63
2022/08/02 06:50:12;;;;;;;5.63;5.18;;;;;;;30.43;100.00;153701.03;5092483;28;20215;-63
2022/08/02 06:52:52;;;;;;;5.35;5.15;;;;;;;30.35;100.00;153680.53;5092269;28;20267;-63
2022/08/02 06:55:20;;;;;;;5.00;4.80;;;;;;;30.26;100.00;153658.72;5092992;28;20271;-63
2022/08/02 06:57:47;;;;;;;5.30;5.10;;;;;;;30.17;100.00;153634.41;5093074;28;20200;-63
2022/08/02 07:00:15;;;;;;;5.30;5.10;;;;;;;30.30;100.00;153669.00;5092475;28;20661;-64
2022/08/02 07:02:43;;;;;;;4.63;4.25;;;;;;;30.64;99.82;153754.91;5092806;28;20188;-63
2022/08/02 07:05:10;;;;;;;5.07;4.65;;;;;;;31.49;97.02;153969.09;5092172;28;20352;-63
2022/08/02 07:07:37;;;;;;;4.88;4.50;;;;;;;31.23;98.01;153904.97;5092676;28;20188;-64
2022/08/02 07:10:05;;;;;;;4.75;4.50;;;;;;;30.95;100.00;153831.84;5092574;28;20188;-63
2022/08/02 07:12:34;;;;;;;5.68;5.35;;;;;;;31.17;100.00;153888.31;5092055;28;20228;-63
2022/08/02 07:15:05;;;;;;;4.63;4.47;;;;;;;31.26;99.16;153911.41;5092477;28;20180;-63
2022/08/02 07:17:32;;;;;;;4.47;4.28;;;;;;;31.19;95.00;153894.72;5092636;28;20634;-63
2022/08/02 07:20:01;;;;;;;4.47;4.22;;;;;;;31.07;94.51;153863.94;5092105;28;20556;-63
2022/08/02 07:22:29;;;;;;;4.07;3.97;;;;;;;31.06;93.65;153861.44;5092070;28;20241;-63
2022/08/02 07:24:58;;;;;;;4.43;3.78;;;;;;;31.12;95.01;153876.78;5092104;28;20208;-63
2022/08/02 07:27:26;;;;;;;4.10;3.72;;;;;;;31.14;90.48;153881.94;5092512;28;20641;-63
2022/08/02 07:29:53;;;;;;;8.57;7.90;;;;;;;31.08;96.38;153866.53;5090256;28;20204;-63
2022/08/02 07:32:22;;;;;;;8.43;4.50;;;;;;;31.12;94.11;153876.78;5092414;28;20536;-63
2022/08/02 07:34:50;;;;;;;4.43;4.18;;;;;;;31.44;95.13;153957.59;5091862;28;20185;-63
2022/08/02 07:37:18;;;;;;;4.30;4.10;;;;;;;31.56;92.04;153988.44;5091890;28;20180;-63
2022/08/02 07:39:45;;;;;;;4.50;4.18;;;;;;;31.51;87.92;153974.25;5092150;28;20562;-62
2022/08/02 07:42:12;;;;;;;6.90;4.97;;;;;;;31.23;91.56;153903.75;5092293;28;20192;-63
2022/08/02 07:44:39;;;;;;;4.82;4.43;;;;;;;30.79;90.19;153792.13;5092403;28;20224;-63
2022/08/02 07:47:06;;;;;;;4.40;3.85;;;;;;;30.81;96.49;153798.50;5092141;28;20642;-63
2022/08/02 07:49:33;;;;;;;5.78;5.10;;;;;;;30.92;97.64;153825.47;5091865;28;20714;-63
2022/08/02 07:52:00;;;;;;;4.80;4.60;;;;;;;30.97;92.67;153838.28;5091946;28;20631;-63
2022/08/02 07:54:32;;;;;;;4.95;4.55;;;;;;;31.00;92.61;153846.03;5091712;28;20191;-63
2022/08/02 07:56:59;;;;;;;5.65;4.63;;;;;;;31.40;97.34;153946.06;5091870;28;20191;-62
2022/08/02 07:59:27;;;;;;;4.93;4.50;;;;;;;31.82;91.45;154053.84;5091602;28;20192;-62
2022/08/02 08:01:54;;;;;;;4.28;4.15;;;;;;;32.03;92.17;154106.44;5091558;28;20226;-63
2022/08/02 08:04:21;;;;;;;5.15;4.85;;;;;;;32.18;86.46;154146.25;5091589;28;20192;-63
2022/08/02 08:06:51;;;;;;;4.70;4.30;;;;;;;32.37;86.13;154192.47;5092033;28;20623;-63
2022/08/02 08:09:18;;;;;;;5.82;5.00;;;;;;;32.34;84.13;154186.00;5091582;28;20277;-63
2022/08/02 08:11:47;;;;;;;4.30;4.05;;;;;;;32.56;82.17;154241.19;5091790;28;20245;-63
2022/08/02 08:14:14;;;;;;;4.25;4.05;;;;;;;32.72;81.62;154282.31;5091515;28;20300;-63
2022/08/02 08:16:41;;;;;;;4.80;4.35;;;;;;;32.74;82.15;154287.47;5091749;28;20631;-63
2022/08/02 08:19:08;;;;;;;4.53;4.32;;;;;;;32.81;80.42;154305.41;5091153;28;20634;-63
2022/08/02 08:21:35;;;;;;;3.90;3.67;;;;;;;32.93;79.94;154334.97;5091377;28;20317;-63
2022/08/02 08:24:03;;;;;;;4.47;4.07;;;;;;;33.05;81.79;154365.78;5091764;28;20651;-63
2022/08/02 08:26:30;;;;;;;6.82;4.90;;;;;;;33.20;77.63;154403.03;5091104;28;20203;-63
2022/08/02 08:28:59;;;;;;;3.92;3.83;;;;;;;33.02;78.19;154358.03;5091437;28;20257;-62
2022/08/02 08:31:26;;;;;;;3.95;3.70;;;;;;;32.99;78.19;154350.34;5091418;28;20192;-63
2022/08/02 08:33:53;;;;;;;4.32;4.13;;;;;;;33.04;76.48;154364.50;5091392;28;20184;-62
2022/08/02 08:36:21;;;;;;;3.90;3.80;;;;;;;32.90;78.13;154328.53;5091203;28;20259;-61
2022/08/02 08:38:49;;;;;;;3.95;3.85;;;;;;;32.76;76.65;154291.34;5089889;28;20190;-62
2022/08/02 08:41:16;;;;;;;4.50;4.20;;;;;;;32.61;77.65;154255.38;5091438;28;20753;-63
2022/08/02 08:43:43;;;;;;;6.75;4.00;;;;;;;32.30;76.70;154175.75;5094990;28;20203;-63
2022/08/02 08:46:18;;;;;;;14.40;13.20;;;;;;;32.06;76.17;154115.41;5094718;28;20199;-63
2022/08/02 08:48:49;;;;;;;4.82;4.40;;;;;;;31.98;80.58;154093.59;5095604;28;20188;-62
2022/08/02 08:51:22;;;;;;;4.50;4.20;;;;;;;31.89;83.25;154070.50;5093714;28;20222;-63
2022/08/02 08:53:53;;;;;;;4.53;4.22;;;;;;;31.91;80.40;154075.66;5095314;28;20329;-62
2022/08/02 08:56:21;;;;;;;5.10;4.65;;;;;;;32.05;82.46;154112.84;5095209;28;20720;-63
2022/08/02 08:58:48;;;;;;;4.47;3.72;;;;;;;32.22;79.34;154153.94;5094837;28;20184;-63
2022/08/02 09:01:16;;;;;;;4.50;3.75;;;;;;;32.08;77.75;154120.56;5094720;28;20183;-62
2022/08/02 09:04:32;;;;;;;7.40;4.30;;;;;;;32.21;77.32;154152.66;5094987;28;20657;-63
2022/08/02 09:06:59;;;;;;;4.50;4.03;;;;;;;32.57;75.66;154245.06;5094516;28;20215;-63
2022/08/02 09:09:26;;;;;;;3.65;3.35;;;;;;;32.64;76.14;154261.78;5094880;28;20188;-63
2022/08/02 09:11:53;;;;;;;3.90;3.80;;;;;;;31.93;78.24;154082.06;5094623;28;20630;-63
2022/08/02 09:14:28;;;;;;;4.00;3.85;;;;;;;32.46;78.45;154215.56;5081217;28;20752;-62
2022/08/02 09:17:07;;;;;;;3.80;3.60;;;;;;;32.83;76.05;154310.56;5074262;28;20180;-63
2022/08/02 09:19:35;;;;;;;3.67;3.38;;;;;;;32.90;73.04;154327.25;5074271;28;20643;-62
2022/08/02 09:22:05;;;;;;;2.90;2.80;;;;;;;33.08;70.53;154373.47;5074458;28;20200;-63
2022/08/02 09:24:43;;;;;;;3.58;3.38;;;;;;;33.04;70.92;154364.50;5074077;28;20185;-62
2022/08/02 09:27:14;;;;;;;3.10;3.00;;;;;;;32.80;71.88;154302.88;5073949;28;20209;-63
2022/08/02 09:29:45;;;;;;;2.97;2.70;;;;;;;32.93;67.92;154336.22;5073926;28;20195;-63
2022/08/02 09:32:15;;;;;;;3.92;3.03;;;;;;;32.99;69.23;154351.66;5073888;28;20201;-62
2022/08/02 09:34:47;;;;;;;3.38;3.17;;;;;;;32.98;73.08;154349.06;5073648;28;20351;-63
2022/08/02 09:37:27;;;;;;;3.42;3.20;;;;;;;33.04;71.41;154364.50;5074810;28;20181;-62
2022/08/02 09:39:54;;;;;;;3.83;3.40;;;;;;;32.57;71.97;154245.06;5074342;28;20191;-63
2022/08/02 09:42:21;;;;;;;3.17;2.97;;;;;;;32.75;73.56;154290.03;5073924;28;20177;-62
2022/08/02 09:44:55;;;;;;;3.15;2.95;;;;;;;32.93;71.77;154334.97;5073839;28;20243;-62
2022/08/02 09:47:24;;;;;;;2.67;2.58;;;;;;;33.32;67.93;154433.84;5073796;28;20185;-62
2022/08/02 09:49:53;;;;;;;3.10;3.00;;;;;;;33.61;66.26;154508.31;5073863;28;20631;-63
2022/08/02 09:52:26;;;;;;;2.60;2.50;;;;;;;33.80;67.34;154557.19;5073862;28;20185;-63
2022/08/02 09:54:53;;;;;;;8.70;3.15;;;;;;;33.38;65.90;154449.25;5073192;28;20189;-63
2022/08/02 09:57:28;;;;;;;3.30;3.08;;;;;;;33.41;64.94;154456.97;5072110;28;20230;-63
2022/08/02 09:59:57;;;;;;;4.03;2.83;;;;;;;33.34;66.64;154439.00;5072450;28;20651;-63
2022/08/02 10:02:26;;;;;;;3.42;2.65;;;;;;;33.13;68.58;154386.31;5073524;28;20618;-62
2022/08/02 10:04:53;;;;;;;2.65;2.55;;;;;;;32.71;69.46;154279.78;5073795;28;20255;-63
2022/08/02 10:07:20;;;;;;;2.85;2.75;;;;;;;32.98;69.14;154347.78;5072941;28;20211;-63
2022/08/02 10:09:47;;;;;;;4.28;2.47;;;;;;;33.17;67.12;154395.34;5071857;28;20191;-63
2022/08/02 10:12:15;;;;;;;2.50;2.40;;;;;;;33.32;66.06;154435.13;5073105;28;20224;-63
2022/08/02 10:14:42;;;;;;;5.75;5.32;;;;;;;33.24;63.49;154413.31;5073271;28;20196;-62
2022/08/02 10:17:10;;;;;;;2.35;2.30;;;;;;;32.44;68.06;154211.69;5073118;28;20188;-63
2022/08/02 10:19:38;;;;;;;2.70;2.53;;;;;;;32.41;66.86;154204.00;5071784;28;20185;-62
2022/08/02 10:22:09;;;;;;;3.10;2.78;;;;;;;32.61;66.32;154255.38;5073318;28;20666;-63
2022/08/02 10:24:38;;;;;;;2.97;2.88;;;;;;;32.83;67.32;154309.28;5073389;28;20195;-63
2022/08/02 10:27:07;;;;;;;4.32;3.90;;;;;;;33.24;65.75;154413.31;5073039;28;20204;-62
2022/08/02 10:29:35;;;;;;;3.55;3.35;;;;;;;33.31;65.19;154432.53;5072697;28;20189;-63
2022/08/02 10:32:06;;;;;;;2.75;2.55;;;;;;;33.12;64.79;154382.44;5073252;28;20192;-63
2022/08/02 10:34:41;;;;;;;3.03;2.92;;;;;;;32.99;66.66;154351.66;5072972;28;20189;-62
2022/08/02 10:37:10;;;;;;;3.15;2.95;;;;;;;32.97;67.92;154345.25;5072748;28;20176;-62
2022/08/02 10:39:40;;;;;;;2.92;2.78;;;;;;;33.02;67.53;154359.34;5072736;28;20279;-64
2022/08/02 10:42:08;;;;;;;2.72;2.53;;;;;;;33.02;67.48;154359.34;5072864;28;20196;-63
2022/08/02 10:44:36;;;;;;;2.80;2.70;;;;;;;33.01;66.83;154355.50;5073253;28;20203;-63
2022/08/02 10:47:25;;;;;;;2.72;2.53;;;;;;;33.14;67.26;154387.66;5072657;28;20240;-62
2022/08/02 10:49:54;;;;;;;2.88;2.78;;;;;;;32.60;66.36;154251.47;5072845;28;20185;-62
2022/08/02 10:52:23;;;;;;;3.17;2.97;;;;;;;32.28;67.76;154169.34;5071604;28;20220;-62
2022/08/02 10:54:55;;;;;;;2.95;2.85;;;;;;;32.15;69.11;154138.56;5072717;28;20180;-62
2022/08/02 10:57:24;;;;;;;4.28;3.10;;;;;;;32.18;70.49;154146.25;5072928;28;20200;-62
2022/08/02 11:00:01;;;;;;;6.07;3.58;;;;;;;32.54;70.93;154236.09;5072648;28;20184;-62
2022/08/02 11:02:42;;;;;;;3.88;3.67;;;;;;;32.21;70.04;154152.66;5073120;28;20650;-63
2022/08/02 11:05:14;;;;;;;8.98;3.38;;;;;;;31.79;73.46;154046.13;5069662;28;20625;-63
2022/08/02 11:07:45;;;;;;;3.60;3.50;;;;;;;31.71;72.66;154025.59;5072488;28;20208;-63
2022/08/02 11:10:36;;;;;;;3.80;3.70;;;;;;;31.89;74.76;154071.78;5072871;28;20540;-64
2022/08/02 11:13:12;;;;;;;3.85;3.65;;;;;;;31.93;72.58;154082.06;5071998;28;20239;-64
2022/08/02 11:16:03;;;;;;;4.43;4.03;;;;;;;31.95;73.58;154087.22;5072816;28;20189;-62
2022/08/02 11:19:07;;;;;;;4.28;3.25;;;;;;;31.89;72.43;154071.78;5072466;28;20216;-62
2022/08/02 11:21:35;;;;;;;4.10;3.78;;;;;;;31.97;72.83;154092.31;5073011;28;20191;-61
2022/08/02 11:24:31;;;;;;;4.03;3.67;;;;;;;31.90;72.50;154074.38;5072269;28;20191;-62
2022/08/02 11:26:58;;;;;;;3.97;3.88;;;;;;;31.58;74.96;153992.25;5072403;28;20567;-62
2022/08/02 11:29:33;;;;;;;5.20;4.40;;;;;;;31.27;78.03;153914.00;5070992;28;20188;-62
2022/08/02 11:32:01;;;;;;;5.43;4.35;;;;;;;31.12;80.52;153876.78;5073044;28;20623;-63
2022/08/02 11:34:31;;;;;;;4.55;4.15;;;;;;;31.30;82.94;153921.66;5072374;28;20627;-63
2022/08/02 11:36:58;;;;;;;3.95;3.85;;;;;;;31.43;80.40;153955.03;5072398;28;20180;-62
2022/08/02 11:39:24;;;;;;;3.90;3.70;;;;;;;31.38;73.17;153940.91;5084086;28;20288;-62
2022/08/02 11:41:57;;;;;;;3.60;3.50;;;;;;;31.47;69.07;153964.00;5090704;28;20204;-63